Terminal Aerodrome Forecast
Issued by NWS Albuquerque, NM

Current Version | Previous Version | Text Only | Print | Product List | Glossary On
Versions: 1 2 3 4 5 6 7 8 9 10 11 12 13 14
000
FTUS45 KABQ 062300 RRA
TAFABQ
TAF
KABQ 062340Z 0700/0724 22009G16KT P6SM VCSH SCT070 BKN140
      TEMPO 0700/0702 VRB18G28KT BKN060 BKN100
     FM070230 26007KT P6SM SCT080 SCT120
     FM070800 30006KT P6SM SCT040 SCT120
     FM071900 20013G21KT P6SM FEW090=

USA.gov is the U.S. government's official web portal to all federal, state and local government web resources and services.